Adair, Missouri
Current Conditions -  °F | °C
As of 4:42 PM on Sunday 23 Nov 2014 (Local Time) from KIRK Reporting Station
Haze Haze  
Wind Chill: 12°   Ceiling: 400
Heat Index: 12°   Visibility: 2.5mi
Dew Point: 12°   Wind: 0mph
Humidity: 100%   Direction: NA
Pressure: 29.32"   Gusts: NA
Location:  40.2186°N, 92.4328°W
Report Text: KIRK 232242Z AUTO 00000KT 2 1/2SM BR OVC004 12/12 A2932 RMK AO2 T01220122
Loading
Personal Weather Stations






























Interactive Weather Map New forecast layout! Learn more

10-Day Weather Forecast

Advertisements
Track Severe Weather on mobile